Albany, Nebraska
Current Conditions -  °F | °C
As of 11:55 PM on Friday 28 Nov 2014 (Local Time) from KHDE Reporting Station
Clear Clear  
Wind Chill: 53°   Ceiling: Unl
Heat Index: 53°   Visibility: 10mi
Dew Point: 14°   Wind: 9mph
Humidity: 21%   Direction: 260°W
Pressure: 29.66"   Gusts: NA
Location:  40.2849°N, 99.6171°W
Report Text: KHDE 290555Z AUTO 26008KT 10SM CLR 12/M10 A2966 RMK AO2 T01161100 10164 20109 402431018
Loading
Personal Weather Stations






























Interactive Weather Map New forecast layout! Learn more

10-Day Weather Forecast

Advertisements
Track Severe Weather on mobile